createdAt,value
2022-12-22T00:01:49.957Z,9.93
2022-12-22T00:04:35.919Z,8.83
2022-12-22T00:07:21.480Z,10.80
2022-12-22T00:10:08.260Z,8.83
2022-12-22T00:12:53.479Z,11.20
2022-12-22T00:15:38.530Z,7.83
2022-12-22T00:18:24.113Z,12.33
2022-12-22T00:21:09.419Z,10.50
2022-12-22T00:23:54.538Z,13.57
2022-12-22T00:26:41.394Z,11.67
2022-12-22T00:29:27.775Z,7.33
2022-12-22T00:32:13.210Z,8.33
2022-12-22T00:34:59.710Z,9.37
2022-12-22T00:37:47.564Z,12.27
2022-12-22T00:40:35.424Z,8.97
2022-12-22T00:43:22.313Z,9.90
2022-12-22T00:46:07.644Z,8.93
2022-12-22T00:48:52.955Z,10.10
2022-12-22T00:51:38.441Z,6.37
2022-12-22T00:54:26.831Z,11.03
2022-12-22T00:57:12.247Z,7.07
2022-12-22T00:59:59.118Z,8.00
2022-12-22T01:02:44.684Z,8.80
2022-12-22T01:05:30.277Z,5.13
2022-12-22T01:08:15.372Z,11.17
2022-12-22T01:11:01.011Z,5.80
2022-12-22T01:13:46.465Z,8.83
2022-12-22T01:16:33.336Z,9.50
2022-12-22T01:19:18.609Z,6.63
2022-12-22T01:22:03.944Z,7.77
2022-12-22T01:24:49.441Z,6.30
2022-12-22T01:27:34.872Z,7.27
2022-12-22T01:30:20.125Z,6.90
2022-12-22T01:33:06.866Z,9.07
2022-12-22T01:35:52.654Z,5.60
2022-12-22T01:38:37.982Z,6.90
2022-12-22T01:41:23.897Z,8.53
2022-12-22T01:44:09.248Z,7.30
2022-12-22T01:46:58.189Z,7.77
2022-12-22T01:49:46.840Z,8.13
2022-12-22T01:52:32.775Z,6.10
2022-12-22T01:55:20.277Z,10.07
2022-12-22T01:58:05.772Z,8.50
2022-12-22T02:00:51.132Z,9.67
2022-12-22T02:03:36.587Z,7.17
2022-12-22T02:06:32.708Z,11.27
2022-12-22T02:09:27.284Z,9.37
2022-12-22T02:12:16.673Z,9.80
2022-12-22T02:15:04.690Z,8.43
2022-12-22T02:17:52.634Z,7.13
2022-12-22T02:20:55.352Z,8.43
2022-12-22T02:23:51.400Z,13.90
2022-12-22T02:26:48.837Z,7.40
2022-12-22T02:29:35.295Z,9.63
2022-12-22T02:32:20.685Z,7.70
2022-12-22T02:35:06.195Z,9.07
2022-12-22T02:37:57.651Z,9.60
2022-12-22T02:40:47.131Z,6.67
2022-12-22T02:43:39.947Z,7.87
2022-12-22T02:46:29.000Z,6.33
2022-12-22T02:49:15.673Z,10.10
2022-12-22T02:52:02.981Z,9.43
2022-12-22T02:54:48.209Z,7.30
2022-12-22T02:57:34.188Z,7.57
2022-12-22T03:00:21.303Z,6.50
2022-12-22T03:03:06.773Z,8.17
2022-12-22T03:05:52.463Z,6.57
2022-12-22T03:08:37.739Z,5.73
2022-12-22T03:11:23.148Z,6.20
2022-12-22T03:14:08.509Z,6.03
2022-12-22T03:16:55.478Z,6.80
2022-12-22T03:19:40.895Z,7.30
2022-12-22T03:22:26.360Z,5.70
2022-12-22T03:25:11.462Z,6.90
2022-12-22T03:27:39.410Z,6.87
2022-12-22T03:30:08.431Z,4.00
2022-12-22T03:32:37.798Z,5.00
2022-12-22T03:35:06.189Z,6.07
2022-12-22T03:37:34.111Z,5.37
2022-12-22T03:40:02.071Z,5.17
2022-12-22T03:42:47.461Z,5.17
2022-12-22T03:45:33.024Z,4.20
2022-12-22T03:48:02.321Z,4.73
2022-12-22T03:50:30.217Z,6.03
2022-12-22T03:52:58.114Z,5.33
2022-12-22T03:55:26.016Z,4.97
2022-12-22T03:57:53.945Z,9.87
2022-12-22T04:00:21.979Z,7.80
2022-12-22T04:02:49.998Z,4.40
2022-12-22T04:05:19.372Z,5.53
2022-12-22T04:07:47.276Z,4.90
2022-12-22T04:10:32.313Z,7.97
2022-12-22T04:13:00.223Z,4.10
2022-12-22T04:15:29.399Z,6.57
2022-12-22T04:17:57.281Z,5.53
2022-12-22T04:20:27.851Z,4.57
2022-12-22T04:22:55.766Z,7.67
2022-12-22T04:25:23.875Z,4.77
2022-12-22T04:27:51.759Z,4.67
2022-12-22T04:30:19.786Z,5.23
2022-12-22T04:32:47.675Z,4.30
2022-12-22T04:35:15.596Z,4.00
2022-12-22T04:37:44.897Z,4.20
2022-12-22T04:40:12.995Z,5.57
2022-12-22T04:42:40.885Z,3.53
2022-12-22T04:45:09.753Z,4.10
2022-12-22T04:47:37.654Z,3.70
2022-12-22T04:50:06.142Z,3.70
2022-12-22T04:52:34.185Z,3.87
2022-12-22T04:55:03.443Z,4.77
2022-12-22T04:57:34.318Z,3.63
2022-12-22T05:00:07.594Z,4.43
2022-12-22T05:02:35.598Z,6.60
2022-12-22T05:05:03.630Z,3.97
2022-12-22T05:07:31.515Z,4.30
2022-12-22T05:09:59.433Z,4.67
2022-12-22T05:12:46.159Z,4.63
2022-12-22T05:15:14.177Z,5.67
2022-12-22T05:17:42.049Z,6.00
2022-12-22T05:20:10.839Z,5.07
2022-12-22T05:22:38.700Z,5.20
2022-12-22T05:25:08.198Z,5.80
2022-12-22T05:27:37.545Z,5.40
2022-12-22T05:30:06.454Z,5.70
2022-12-22T05:32:34.346Z,4.27
2022-12-22T05:35:03.168Z,4.00
2022-12-22T05:37:31.251Z,7.67
2022-12-22T05:39:59.145Z,6.70
2022-12-22T05:42:36.885Z,5.13
2022-12-22T05:45:09.076Z,11.50
2022-12-22T05:47:37.063Z,14.87
2022-12-22T05:50:05.573Z,34.00
2022-12-22T05:52:33.454Z,25.33
2022-12-22T05:55:01.351Z,36.67
2022-12-22T05:57:29.254Z,42.77
2022-12-22T05:59:57.183Z,36.83
2022-12-22T06:02:26.611Z,32.67
2022-12-22T06:04:54.626Z,18.47
2022-12-22T06:07:22.534Z,26.27
2022-12-22T06:09:50.458Z,25.63
2022-12-22T06:12:18.346Z,31.43
2022-12-22T06:14:46.367Z,25.97
2022-12-22T06:17:14.248Z,15.10
2022-12-22T06:19:43.536Z,20.27
2022-12-22T06:22:11.423Z,21.20
2022-12-22T06:24:39.318Z,29.13
2022-12-22T06:27:07.200Z,18.60
2022-12-22T06:29:35.104Z,12.20
2022-12-22T06:32:03.052Z,16.47
2022-12-22T06:34:30.950Z,18.03
2022-12-22T06:37:00.320Z,12.93
2022-12-22T06:39:28.249Z,16.80
2022-12-22T06:42:18.781Z,16.20
2022-12-22T06:44:47.351Z,18.70
2022-12-22T06:47:15.222Z,22.37
2022-12-22T06:49:43.413Z,19.27
2022-12-22T06:52:12.713Z,15.50
2022-12-22T06:54:40.679Z,9.80
2022-12-22T06:57:08.553Z,18.93
2022-12-22T06:59:36.493Z,18.03
2022-12-22T07:02:04.431Z,14.57
2022-12-22T07:04:32.463Z,21.47
2022-12-22T07:07:00.375Z,20.97
2022-12-22T07:09:29.884Z,18.03
2022-12-22T07:11:57.840Z,36.67
2022-12-22T07:14:25.737Z,19.37
2022-12-22T07:16:53.687Z,22.03
2022-12-22T07:19:21.671Z,18.93
2022-12-22T07:21:51.010Z,26.47
2022-12-22T07:24:23.883Z,21.87
2022-12-22T07:26:53.215Z,23.20
2022-12-22T07:29:21.098Z,21.80
2022-12-22T07:31:49.108Z,25.07
2022-12-22T07:34:17.190Z,23.27
2022-12-22T07:36:45.284Z,26.07
2022-12-22T07:39:13.284Z,33.33
2022-12-22T07:41:58.633Z,35.87
2022-12-22T07:44:28.010Z,34.63
2022-12-22T07:46:55.963Z,43.97
2022-12-22T07:49:41.183Z,39.37
2022-12-22T07:52:09.119Z,46.30
2022-12-22T07:54:41.816Z,42.80
2022-12-22T07:57:10.309Z,31.50
2022-12-22T07:59:39.799Z,38.13
2022-12-22T08:02:08.056Z,30.57
2022-12-22T08:04:36.035Z,26.97
2022-12-22T08:07:03.996Z,42.40
2022-12-22T08:09:32.128Z,26.60
2022-12-22T08:12:00.054Z,21.53
2022-12-22T08:14:27.999Z,19.67
2022-12-22T08:16:57.401Z,19.90
2022-12-22T08:19:25.860Z,22.50
2022-12-22T08:21:53.764Z,21.50
2022-12-22T08:24:21.821Z,32.20
2022-12-22T08:26:50.621Z,29.20
2022-12-22T08:29:19.551Z,30.37
2022-12-22T08:31:47.604Z,23.07
2022-12-22T08:34:17.091Z,24.70
2022-12-22T08:36:46.251Z,24.00
2022-12-22T08:39:14.257Z,16.53
2022-12-22T08:41:53.936Z,17.50
2022-12-22T08:44:23.158Z,21.67
2022-12-22T08:46:51.224Z,23.73
2022-12-22T08:49:20.673Z,17.73
2022-12-22T08:51:48.758Z,12.27
2022-12-22T08:54:17.116Z,16.17
2022-12-22T08:56:45.829Z,14.70
2022-12-22T08:59:13.939Z,21.37
2022-12-22T09:01:44.651Z,11.93
2022-12-22T09:04:13.610Z,13.07
2022-12-22T09:06:42.900Z,19.10
2022-12-22T09:09:12.763Z,13.23
2022-12-22T09:11:40.832Z,15.87
2022-12-22T09:14:09.077Z,13.03
2022-12-22T09:16:37.169Z,11.93
2022-12-22T09:19:05.180Z,18.47
2022-12-22T09:21:33.086Z,15.93
2022-12-22T09:24:03.371Z,18.50
2022-12-22T09:26:31.345Z,11.67
2022-12-22T09:28:59.287Z,11.50
2022-12-22T09:31:27.370Z,11.00
2022-12-22T09:33:55.344Z,15.37
2022-12-22T09:36:23.976Z,20.23
2022-12-22T09:38:51.869Z,26.13
2022-12-22T09:41:22.286Z,25.67
2022-12-22T09:43:50.210Z,22.87
2022-12-22T09:46:21.853Z,24.67
2022-12-22T09:48:49.869Z,33.37
2022-12-22T09:51:24.543Z,20.50
2022-12-22T09:53:55.768Z,15.60
2022-12-22T09:56:25.030Z,26.57
2022-12-22T09:58:52.899Z,16.73
2022-12-22T10:01:34.284Z,15.77
2022-12-22T10:04:04.133Z,23.97
2022-12-22T10:06:35.689Z,18.10
2022-12-22T10:09:05.769Z,15.13
2022-12-22T10:11:39.409Z,20.80
2022-12-22T10:14:07.437Z,25.33
2022-12-22T10:16:35.370Z,27.53
2022-12-22T10:19:10.618Z,32.83
2022-12-22T10:21:46.169Z,26.80
2022-12-22T10:24:19.108Z,33.10
2022-12-22T10:26:49.302Z,39.67
2022-12-22T10:29:17.192Z,40.53
2022-12-22T10:31:59.579Z,44.70
2022-12-22T10:34:27.527Z,32.87
2022-12-22T10:36:57.757Z,38.70
2022-12-22T10:39:26.286Z,25.90
2022-12-22T10:41:57.405Z,39.73
2022-12-22T10:44:26.588Z,26.00
2022-12-22T10:46:54.961Z,24.07
2022-12-22T10:49:24.025Z,30.50
2022-12-22T10:51:54.017Z,34.47
2022-12-22T10:54:31.902Z,31.40
2022-12-22T10:57:28.845Z,38.13
2022-12-22T10:59:57.904Z,30.10
2022-12-22T11:02:30.183Z,33.10
2022-12-22T11:05:03.082Z,28.93
2022-12-22T11:07:32.449Z,34.73
2022-12-22T11:10:00.523Z,30.50
2022-12-22T11:12:34.891Z,25.40
2022-12-22T11:15:04.636Z,34.27
2022-12-22T11:17:36.418Z,41.10
2022-12-22T11:20:17.882Z,32.27
2022-12-22T11:22:49.224Z,29.00
2022-12-22T11:25:23.883Z,25.33
2022-12-22T11:28:04.401Z,55.03
2022-12-22T11:30:35.897Z,25.50
2022-12-22T11:33:24.482Z,34.73
2022-12-22T11:35:58.789Z,39.40
2022-12-22T11:38:33.985Z,41.13
2022-12-22T11:41:05.502Z,40.13
2022-12-22T11:43:39.761Z,32.37
2022-12-22T11:46:16.306Z,28.10
2022-12-22T11:49:01.104Z,45.77
2022-12-22T11:51:37.282Z,37.27
2022-12-22T11:54:14.777Z,35.63
2022-12-22T11:56:43.857Z,35.37
2022-12-22T11:59:24.494Z,33.90
2022-12-22T12:02:17.939Z,32.30
2022-12-22T12:05:00.686Z,36.23
2022-12-22T12:07:29.359Z,30.00
2022-12-22T12:10:04.358Z,25.70
2022-12-22T12:12:37.082Z,32.80
2022-12-22T12:15:12.480Z,29.67
2022-12-22T12:17:50.135Z,35.37
2022-12-22T12:20:29.240Z,45.60
2022-12-22T12:23:04.225Z,41.10
2022-12-22T12:25:33.638Z,40.30
2022-12-22T12:28:17.330Z,36.93
2022-12-22T12:30:52.541Z,36.90
2022-12-22T12:33:22.103Z,41.53
2022-12-22T12:35:57.187Z,35.70
2022-12-22T12:39:06.299Z,48.67
2022-12-22T12:41:21.983Z,33.97
2022-12-22T12:43:49.998Z,42.67
2022-12-22T12:46:46.607Z,28.77
2022-12-22T12:50:03.315Z,43.13
2022-12-22T12:53:16.953Z,39.47
2022-12-22T12:56:09.664Z,41.60
2022-12-22T12:58:58.315Z,30.80
2022-12-22T13:02:01.094Z,38.07
2022-12-22T13:05:12.161Z,29.83
2022-12-22T13:08:12.162Z,30.97
2022-12-22T13:10:42.121Z,32.40
2022-12-22T13:13:12.827Z,40.33
2022-12-22T13:15:41.567Z,31.33
2022-12-22T13:18:36.902Z,34.00
2022-12-22T13:26:52.050Z,42.27
2022-12-22T13:29:24.914Z,42.30
2022-12-22T13:31:54.133Z,42.67
2022-12-22T13:35:04.337Z,37.90
2022-12-22T13:37:28.197Z,34.50
2022-12-22T13:40:17.413Z,28.87
2022-12-22T13:42:47.309Z,38.80
2022-12-22T13:45:34.391Z,31.60
2022-12-22T13:48:02.758Z,28.27
2022-12-22T13:50:34.038Z,17.20
2022-12-22T13:53:02.008Z,34.90
2022-12-22T13:55:31.399Z,18.87
2022-12-22T13:58:02.183Z,33.13
2022-12-22T14:00:30.301Z,14.20
2022-12-22T14:02:58.320Z,17.37
2022-12-22T14:05:31.901Z,24.67
2022-12-22T14:08:01.429Z,9.50
2022-12-22T14:10:34.535Z,18.20
2022-12-22T14:13:04.100Z,16.50
2022-12-22T14:15:32.225Z,18.07
2022-12-22T14:18:00.130Z,16.60
2022-12-22T14:20:28.991Z,24.87
2022-12-22T14:23:00.077Z,12.80
2022-12-22T14:25:30.254Z,18.93
2022-12-22T14:27:58.291Z,21.47
2022-12-22T14:30:30.993Z,19.07
2022-12-22T14:33:16.674Z,11.37
2022-12-22T14:35:44.698Z,15.20
2022-12-22T14:38:22.295Z,18.47
2022-12-22T14:40:56.528Z,17.70
2022-12-22T14:43:27.973Z,15.73
2022-12-22T14:46:03.042Z,19.63
2022-12-22T14:48:32.568Z,18.60
2022-12-22T14:51:00.526Z,12.67
2022-12-22T14:53:33.851Z,10.00
2022-12-22T14:56:01.743Z,9.87
2022-12-22T14:58:30.919Z,9.60
2022-12-22T15:01:14.217Z,5.70
2022-12-22T15:03:42.269Z,15.33
2022-12-22T15:06:34.315Z,10.47
2022-12-22T15:10:12.612Z,10.93
2022-12-22T15:12:15.568Z,4.50
2022-12-22T15:14:43.565Z,15.63
2022-12-22T15:17:17.932Z,8.10
2022-12-22T15:19:45.823Z,12.87
2022-12-22T15:22:14.084Z,14.60
2022-12-22T15:24:43.405Z,9.90
2022-12-22T15:27:11.337Z,13.60
2022-12-22T15:29:39.233Z,18.10
2022-12-22T15:32:11.072Z,9.50
2022-12-22T15:34:38.967Z,7.60
2022-12-22T15:37:06.849Z,6.27
2022-12-22T15:39:34.760Z,6.53
2022-12-22T15:42:04.194Z,7.87
2022-12-22T15:44:38.288Z,5.20
2022-12-22T15:47:06.901Z,3.37
2022-12-22T15:49:34.882Z,7.03
2022-12-22T15:52:03.734Z,9.07
2022-12-22T15:54:33.252Z,7.30
2022-12-22T15:57:01.366Z,5.23
2022-12-22T15:59:31.033Z,5.23
2022-12-22T16:02:01.775Z,14.87
2022-12-22T16:04:30.510Z,13.43
2022-12-22T16:06:59.592Z,20.07
2022-12-22T16:09:28.927Z,10.40
2022-12-22T16:11:56.878Z,12.03
2022-12-22T16:14:24.714Z,7.20
2022-12-22T16:16:54.023Z,8.87
2022-12-22T16:19:21.985Z,8.70
2022-12-22T16:21:50.671Z,11.80
2022-12-22T16:24:23.599Z,3.87
2022-12-22T16:26:51.523Z,2.53
2022-12-22T16:29:19.452Z,5.87
2022-12-22T16:31:49.545Z,6.83
2022-12-22T16:34:18.991Z,9.47
2022-12-22T16:36:46.874Z,8.03
2022-12-22T16:39:14.746Z,4.13
2022-12-22T16:41:42.664Z,6.30
2022-12-22T16:44:10.948Z,8.87
2022-12-22T16:46:39.195Z,11.30
2022-12-22T16:49:08.659Z,13.07
2022-12-22T16:51:47.827Z,14.40
2022-12-22T16:54:15.895Z,5.20
2022-12-22T16:56:46.690Z,4.27
2022-12-22T16:59:14.825Z,12.07
2022-12-22T17:01:44.096Z,16.83
2022-12-22T17:04:14.126Z,17.33
2022-12-22T17:06:43.552Z,20.07
2022-12-22T17:09:14.134Z,9.33
2022-12-22T17:11:42.301Z,21.20
2022-12-22T17:14:17.009Z,15.37
2022-12-22T17:16:44.924Z,14.63
2022-12-22T17:19:12.935Z,17.50
2022-12-22T17:21:40.849Z,11.33
2022-12-22T17:24:11.710Z,11.27
2022-12-22T17:26:39.636Z,12.37
2022-12-22T17:29:07.601Z,17.27
2022-12-22T17:31:35.613Z,26.23
2022-12-22T17:34:11.766Z,17.37
2022-12-22T17:36:40.224Z,14.27
2022-12-22T17:39:11.360Z,22.83
2022-12-22T17:41:39.336Z,10.40
2022-12-22T17:44:07.640Z,9.63
2022-12-22T17:46:36.180Z,19.87
2022-12-22T17:49:04.200Z,12.47
2022-12-22T17:51:32.202Z,13.90
2022-12-22T17:54:00.221Z,16.80
2022-12-22T17:56:30.589Z,9.33
2022-12-22T17:58:58.480Z,13.00
2022-12-22T18:01:28.582Z,11.43
2022-12-22T18:03:56.793Z,19.57
2022-12-22T18:06:26.601Z,11.43
2022-12-22T18:08:55.656Z,20.80
2022-12-22T18:11:23.843Z,15.10
2022-12-22T18:13:53.558Z,10.13
2022-12-22T18:16:23.236Z,11.10
2022-12-22T18:18:51.609Z,11.40
2022-12-22T18:21:20.638Z,14.53
2022-12-22T18:23:50.706Z,16.10
2022-12-22T18:26:21.771Z,12.77
2022-12-22T18:28:50.075Z,12.63
2022-12-22T18:31:19.581Z,13.57
2022-12-22T18:33:47.564Z,11.50
2022-12-22T18:36:22.305Z,5.57
2022-12-22T18:38:50.199Z,9.30
2022-12-22T18:41:21.703Z,6.03
2022-12-22T18:43:49.907Z,4.57
2022-12-22T18:46:19.422Z,4.20
2022-12-22T18:48:47.508Z,4.73
2022-12-22T18:51:19.057Z,12.97
2022-12-22T18:53:46.998Z,6.63
2022-12-22T18:56:15.240Z,7.20
2022-12-22T18:58:43.279Z,23.77
2022-12-22T19:01:17.869Z,5.97
2022-12-22T19:03:47.664Z,19.30
2022-12-22T19:06:16.362Z,12.60
2022-12-22T19:08:46.176Z,14.57
2022-12-22T19:11:14.448Z,5.10
2022-12-22T19:13:44.773Z,12.40
2022-12-22T19:16:13.281Z,18.33
2022-12-22T19:18:41.210Z,13.97
2022-12-22T19:21:13.275Z,17.40
2022-12-22T19:23:41.238Z,9.73
2022-12-22T19:26:16.745Z,7.30
2022-12-22T19:28:45.031Z,6.27
2022-12-22T19:31:17.777Z,7.00
2022-12-22T19:33:45.808Z,4.50
2022-12-22T19:36:17.154Z,3.73
2022-12-22T19:38:50.287Z,6.33
2022-12-22T19:41:27.446Z,7.07
2022-12-22T19:43:55.388Z,7.07
2022-12-22T19:46:30.574Z,3.33
2022-12-22T19:48:58.609Z,6.77
2022-12-22T19:51:27.872Z,15.30
2022-12-22T19:53:55.784Z,19.03
2022-12-22T19:56:25.230Z,10.07
2022-12-22T19:58:53.143Z,6.83
2022-12-22T20:01:21.138Z,4.10
2022-12-22T20:03:49.128Z,6.77
2022-12-22T20:06:17.627Z,6.47
2022-12-22T20:08:47.169Z,9.93
2022-12-22T20:11:15.568Z,11.53
2022-12-22T20:13:43.476Z,8.13
2022-12-22T20:16:13.731Z,7.17
2022-12-22T20:18:41.679Z,10.10
2022-12-22T20:21:13.053Z,10.70
2022-12-22T20:23:41.263Z,12.73
2022-12-22T20:26:15.162Z,15.57
2022-12-22T20:28:43.036Z,6.23
2022-12-22T20:31:13.099Z,7.17
2022-12-22T20:33:41.073Z,8.77
2022-12-22T20:36:15.236Z,6.83
2022-12-22T20:38:43.193Z,5.20
2022-12-22T20:41:12.483Z,12.80
2022-12-22T20:43:40.419Z,9.50
2022-12-22T20:46:13.446Z,8.57
2022-12-22T20:48:43.754Z,4.50
2022-12-22T20:51:13.732Z,6.43
2022-12-22T20:53:41.617Z,7.80
2022-12-22T20:56:17.860Z,12.13
2022-12-22T20:58:45.798Z,13.43
2022-12-22T21:01:13.769Z,7.87
2022-12-22T21:03:41.818Z,11.77
2022-12-22T21:06:26.623Z,11.83
2022-12-22T21:08:55.363Z,8.93
2022-12-22T21:11:25.017Z,11.67
2022-12-22T21:13:52.995Z,8.07
2022-12-22T21:16:23.161Z,7.87
2022-12-22T21:18:51.227Z,21.60
2022-12-22T21:21:19.099Z,6.73
2022-12-22T21:23:47.119Z,7.77
2022-12-22T21:26:19.977Z,6.23
2022-12-22T21:28:49.306Z,9.73
2022-12-22T21:31:17.255Z,12.60
2022-12-22T21:33:45.396Z,20.37
2022-12-22T21:36:17.765Z,19.47
2022-12-22T21:38:47.386Z,22.90
2022-12-22T21:41:15.327Z,14.20
2022-12-22T21:43:43.426Z,11.70
2022-12-22T21:46:13.835Z,17.63
2022-12-22T21:48:41.865Z,12.53
2022-12-22T21:51:12.139Z,18.03
2022-12-22T21:53:40.115Z,13.90
2022-12-22T21:56:16.514Z,7.73
2022-12-22T21:58:44.406Z,9.03
2022-12-22T22:01:14.216Z,9.53
2022-12-22T22:03:42.471Z,11.83
2022-12-22T22:06:10.818Z,12.87
2022-12-22T22:08:38.726Z,17.70
2022-12-22T22:11:07.273Z,16.57
2022-12-22T22:13:35.214Z,17.53
2022-12-22T22:16:03.182Z,19.93
2022-12-22T22:18:32.539Z,9.97
2022-12-22T22:21:00.503Z,24.90
2022-12-22T22:23:28.482Z,17.97
2022-12-22T22:25:58.283Z,21.40
2022-12-22T22:28:26.160Z,14.93
2022-12-22T22:30:54.211Z,13.43
2022-12-22T22:33:22.172Z,10.07
2022-12-22T22:35:53.824Z,10.73
2022-12-22T22:38:22.011Z,9.87
2022-12-22T22:40:50.202Z,7.90
2022-12-22T22:43:18.060Z,7.77
2022-12-22T22:45:46.135Z,11.20
2022-12-22T22:48:19.001Z,6.43
2022-12-22T22:50:46.906Z,7.57
2022-12-22T22:53:16.397Z,4.60
2022-12-22T22:55:44.280Z,7.80
2022-12-22T22:58:12.383Z,8.17
2022-12-22T23:00:40.301Z,16.83
2022-12-22T23:03:08.367Z,7.53
2022-12-22T23:05:36.474Z,17.57
2022-12-22T23:08:04.498Z,88.93
2022-12-22T23:10:41.164Z,18.17
2022-12-22T23:13:09.845Z,6.20
2022-12-22T23:15:37.737Z,6.20
2022-12-22T23:18:05.937Z,17.50
2022-12-22T23:20:33.892Z,15.70
2022-12-22T23:23:01.814Z,9.03
2022-12-22T23:25:29.727Z,10.30
2022-12-22T23:27:59.059Z,11.33
2022-12-22T23:30:26.931Z,13.73
2022-12-22T23:32:54.802Z,8.30
2022-12-22T23:35:22.772Z,12.40
2022-12-22T23:37:50.642Z,5.13
2022-12-22T23:40:50.644Z,6.20
2022-12-22T23:43:08.429Z,9.10
2022-12-22T23:45:36.347Z,13.53
2022-12-22T23:48:04.336Z,12.87
2022-12-22T23:50:32.477Z,11.60
2022-12-22T23:53:00.367Z,10.00
2022-12-22T23:55:28.282Z,8.17
2022-12-22T23:57:56.163Z,9.60
